sensor_id;sensor_type;location;lat;lon;timestamp;temperature;humidity
582;DHT22;277;50.074;8.436;2023-05-27T00:01:31;13.90;99.90
582;DHT22;277;50.074;8.436;2023-05-27T00:03:59;13.90;99.90
582;DHT22;277;50.074;8.436;2023-05-27T00:06:27;13.90;99.90
582;DHT22;277;50.074;8.436;2023-05-27T00:08:55;13.90;99.90
582;DHT22;277;50.074;8.436;2023-05-27T00:11:24;13.90;99.90
582;DHT22;277;50.074;8.436;2023-05-27T00:13:52;13.90;99.90
582;DHT22;277;50.074;8.436;2023-05-27T00:16:20;13.80;99.90
582;DHT22;277;50.074;8.436;2023-05-27T00:18:50;13.80;99.90
582;DHT22;277;50.074;8.436;2023-05-27T00:21:19;13.80;99.90
582;DHT22;277;50.074;8.436;2023-05-27T00:23:47;13.80;99.90
582;DHT22;277;50.074;8.436;2023-05-27T00:26:15;13.80;99.90
582;DHT22;277;50.074;8.436;2023-05-27T00:28:43;13.80;99.90
582;DHT22;277;50.074;8.436;2023-05-27T00:31:11;13.70;99.90
582;DHT22;277;50.074;8.436;2023-05-27T00:33:38;13.70;99.90
582;DHT22;277;50.074;8.436;2023-05-27T00:36:08;13.70;99.90
582;DHT22;277;50.074;8.436;2023-05-27T00:38:36;13.70;99.90
582;DHT22;277;50.074;8.436;2023-05-27T00:41:04;13.70;99.90
582;DHT22;277;50.074;8.436;2023-05-27T00:43:33;13.70;99.90
582;DHT22;277;50.074;8.436;2023-05-27T00:46:00;13.70;99.90
582;DHT22;277;50.074;8.436;2023-05-27T00:48:28;13.60;99.90
582;DHT22;277;50.074;8.436;2023-05-27T00:50:57;13.70;99.90
582;DHT22;277;50.074;8.436;2023-05-27T00:53:27;13.70;99.90
582;DHT22;277;50.074;8.436;2023-05-27T00:55:55;13.70;99.90
582;DHT22;277;50.074;8.436;2023-05-27T00:58:24;13.60;99.90
582;DHT22;277;50.074;8.436;2023-05-27T01:00:54;13.60;99.90
582;DHT22;277;50.074;8.436;2023-05-27T01:03:23;13.60;99.90
582;DHT22;277;50.074;8.436;2023-05-27T01:05:56;13.60;99.90
582;DHT22;277;50.074;8.436;2023-05-27T01:08:34;13.60;99.90
582;DHT22;277;50.074;8.436;2023-05-27T01:11:04;13.60;99.90
582;DHT22;277;50.074;8.436;2023-05-27T01:13:39;13.60;99.90
582;DHT22;277;50.074;8.436;2023-05-27T01:16:11;13.60;99.90
582;DHT22;277;50.074;8.436;2023-05-27T01:18:40;13.60;99.90
582;DHT22;277;50.074;8.436;2023-05-27T01:21:12;13.50;99.90
582;DHT22;277;50.074;8.436;2023-05-27T01:23:42;13.50;99.90
582;DHT22;277;50.074;8.436;2023-05-27T01:26:11;13.50;99.90
582;DHT22;277;50.074;8.436;2023-05-27T01:28:39;13.50;99.90
582;DHT22;277;50.074;8.436;2023-05-27T01:31:12;13.50;99.90
582;DHT22;277;50.074;8.436;2023-05-27T01:33:43;13.50;99.90
582;DHT22;277;50.074;8.436;2023-05-27T01:36:15;13.50;99.90
582;DHT22;277;50.074;8.436;2023-05-27T01:38:47;13.50;99.90
582;DHT22;277;50.074;8.436;2023-05-27T01:41:16;13.50;99.90
582;DHT22;277;50.074;8.436;2023-05-27T01:43:45;13.30;99.90
582;DHT22;277;50.074;8.436;2023-05-27T01:46:13;13.30;99.90
582;DHT22;277;50.074;8.436;2023-05-27T01:48:41;13.30;99.90
582;DHT22;277;50.074;8.436;2023-05-27T01:51:10;13.20;99.90
582;DHT22;277;50.074;8.436;2023-05-27T01:53:37;13.30;99.90
582;DHT22;277;50.074;8.436;2023-05-27T01:56:07;13.20;99.90
582;DHT22;277;50.074;8.436;2023-05-27T01:58:34;13.20;99.90
582;DHT22;277;50.074;8.436;2023-05-27T02:01:03;13.20;99.90
582;DHT22;277;50.074;8.436;2023-05-27T02:03:31;13.20;99.90
582;DHT22;277;50.074;8.436;2023-05-27T02:05:59;13.20;99.90
582;DHT22;277;50.074;8.436;2023-05-27T02:08:26;13.10;99.90
582;DHT22;277;50.074;8.436;2023-05-27T02:10:54;13.10;99.90
582;DHT22;277;50.074;8.436;2023-05-27T02:13:24;13.00;99.90
582;DHT22;277;50.074;8.436;2023-05-27T02:15:51;13.00;99.90
582;DHT22;277;50.074;8.436;2023-05-27T02:18:20;13.00;99.90
582;DHT22;277;50.074;8.436;2023-05-27T02:20:48;13.00;99.90
582;DHT22;277;50.074;8.436;2023-05-27T02:23:16;13.00;99.90
582;DHT22;277;50.074;8.436;2023-05-27T02:25:44;13.00;99.90
582;DHT22;277;50.074;8.436;2023-05-27T02:28:12;12.90;99.90
582;DHT22;277;50.074;8.436;2023-05-27T02:30:41;12.90;99.90
582;DHT22;277;50.074;8.436;2023-05-27T02:33:09;12.90;99.90
582;DHT22;277;50.074;8.436;2023-05-27T02:35:38;12.80;99.90
582;DHT22;277;50.074;8.436;2023-05-27T02:38:06;12.80;99.90
582;DHT22;277;50.074;8.436;2023-05-27T02:40:34;12.80;99.90
582;DHT22;277;50.074;8.436;2023-05-27T02:43:02;12.70;99.90
582;DHT22;277;50.074;8.436;2023-05-27T02:45:29;12.80;99.90
582;DHT22;277;50.074;8.436;2023-05-27T02:47:59;12.70;99.90
582;DHT22;277;50.074;8.436;2023-05-27T02:50:28;12.70;99.90
582;DHT22;277;50.074;8.436;2023-05-27T02:52:56;12.70;99.90
582;DHT22;277;50.074;8.436;2023-05-27T02:55:24;12.80;99.90
582;DHT22;277;50.074;8.436;2023-05-27T02:57:52;12.70;99.90
582;DHT22;277;50.074;8.436;2023-05-27T03:00:20;12.70;99.90
582;DHT22;277;50.074;8.436;2023-05-27T03:02:48;12.60;99.90
582;DHT22;277;50.074;8.436;2023-05-27T03:05:17;12.60;99.90
582;DHT22;277;50.074;8.436;2023-05-27T03:07:45;12.60;99.90
582;DHT22;277;50.074;8.436;2023-05-27T03:10:13;12.60;99.90
582;DHT22;277;50.074;8.436;2023-05-27T03:12:41;12.50;99.90
582;DHT22;277;50.074;8.436;2023-05-27T03:15:09;12.50;99.90
582;DHT22;277;50.074;8.436;2023-05-27T03:17:37;12.50;99.90
582;DHT22;277;50.074;8.436;2023-05-27T03:20:06;12.60;99.90
582;DHT22;277;50.074;8.436;2023-05-27T03:22:36;12.60;99.90
582;DHT22;277;50.074;8.436;2023-05-27T03:25:05;12.50;99.90
582;DHT22;277;50.074;8.436;2023-05-27T03:27:34;12.40;99.90
582;DHT22;277;50.074;8.436;2023-05-27T03:30:03;12.40;99.90
582;DHT22;277;50.074;8.436;2023-05-27T03:32:31;12.40;99.90
582;DHT22;277;50.074;8.436;2023-05-27T03:34:59;12.40;99.90
582;DHT22;277;50.074;8.436;2023-05-27T03:37:27;12.40;99.90
582;DHT22;277;50.074;8.436;2023-05-27T03:39:56;12.40;99.90
582;DHT22;277;50.074;8.436;2023-05-27T03:42:25;12.40;99.90
582;DHT22;277;50.074;8.436;2023-05-27T03:44:52;12.40;99.90
582;DHT22;277;50.074;8.436;2023-05-27T03:47:20;12.40;99.90
582;DHT22;277;50.074;8.436;2023-05-27T03:49:48;12.30;99.90
582;DHT22;277;50.074;8.436;2023-05-27T03:52:16;12.20;99.90
582;DHT22;277;50.074;8.436;2023-05-27T03:54:44;12.20;99.90
582;DHT22;277;50.074;8.436;2023-05-27T03:57:13;12.30;99.90
582;DHT22;277;50.074;8.436;2023-05-27T03:59:42;12.30;99.90
582;DHT22;277;50.074;8.436;2023-05-27T04:02:10;12.40;99.90
582;DHT22;277;50.074;8.436;2023-05-27T04:04:39;12.40;99.90
582;DHT22;277;50.074;8.436;2023-05-27T04:07:07;12.30;99.90
582;DHT22;277;50.074;8.436;2023-05-27T04:09:34;12.30;99.90
582;DHT22;277;50.074;8.436;2023-05-27T04:12:03;12.30;99.90
582;DHT22;277;50.074;8.436;2023-05-27T04:14:33;12.20;99.90
582;DHT22;277;50.074;8.436;2023-05-27T04:17:02;12.20;99.90
582;DHT22;277;50.074;8.436;2023-05-27T04:19:30;12.10;99.90
582;DHT22;277;50.074;8.436;2023-05-27T04:21:59;12.10;99.90
582;DHT22;277;50.074;8.436;2023-05-27T04:24:27;12.10;99.90
582;DHT22;277;50.074;8.436;2023-05-27T04:26:55;12.20;99.90
582;DHT22;277;50.074;8.436;2023-05-27T04:29:23;12.10;99.90
582;DHT22;277;50.074;8.436;2023-05-27T04:31:52;12.20;99.90
582;DHT22;277;50.074;8.436;2023-05-27T04:34:20;12.20;99.90
582;DHT22;277;50.074;8.436;2023-05-27T04:36:48;12.20;99.90
582;DHT22;277;50.074;8.436;2023-05-27T04:39:16;12.20;99.90
582;DHT22;277;50.074;8.436;2023-05-27T04:41:44;12.20;99.90
582;DHT22;277;50.074;8.436;2023-05-27T04:44:12;12.30;99.90
582;DHT22;277;50.074;8.436;2023-05-27T04:46:40;12.30;99.90
582;DHT22;277;50.074;8.436;2023-05-27T04:49:11;12.40;99.90
582;DHT22;277;50.074;8.436;2023-05-27T04:51:39;12.40;99.90
582;DHT22;277;50.074;8.436;2023-05-27T04:54:07;12.50;99.90
582;DHT22;277;50.074;8.436;2023-05-27T04:56:36;12.60;99.90
582;DHT22;277;50.074;8.436;2023-05-27T04:59:04;12.70;99.90
582;DHT22;277;50.074;8.436;2023-05-27T05:01:32;12.80;99.90
582;DHT22;277;50.074;8.436;2023-05-27T05:04:17;12.80;99.90
582;DHT22;277;50.074;8.436;2023-05-27T05:06:45;12.90;99.90
582;DHT22;277;50.074;8.436;2023-05-27T05:09:13;13.00;99.90
582;DHT22;277;50.074;8.436;2023-05-27T05:11:41;13.10;99.90
582;DHT22;277;50.074;8.436;2023-05-27T05:14:09;13.20;99.90
582;DHT22;277;50.074;8.436;2023-05-27T05:16:37;13.30;99.90
582;DHT22;277;50.074;8.436;2023-05-27T05:19:05;13.40;99.90
582;DHT22;277;50.074;8.436;2023-05-27T05:21:34;13.40;99.90
582;DHT22;277;50.074;8.436;2023-05-27T05:24:03;13.50;99.90
582;DHT22;277;50.074;8.436;2023-05-27T05:26:31;13.60;99.90
582;DHT22;277;50.074;8.436;2023-05-27T05:29:00;13.70;99.90
582;DHT22;277;50.074;8.436;2023-05-27T05:31:28;13.80;99.90
582;DHT22;277;50.074;8.436;2023-05-27T05:33:55;13.80;99.90
582;DHT22;277;50.074;8.436;2023-05-27T05:36:23;13.80;99.90
582;DHT22;277;50.074;8.436;2023-05-27T05:38:53;13.90;99.90
582;DHT22;277;50.074;8.436;2023-05-27T05:41:21;14.00;99.90
582;DHT22;277;50.074;8.436;2023-05-27T05:43:49;14.10;99.90
582;DHT22;277;50.074;8.436;2023-05-27T05:46:16;14.10;99.90
582;DHT22;277;50.074;8.436;2023-05-27T05:48:44;14.20;99.90
582;DHT22;277;50.074;8.436;2023-05-27T05:51:14;14.20;99.90
582;DHT22;277;50.074;8.436;2023-05-27T05:53:42;14.20;99.90
582;DHT22;277;50.074;8.436;2023-05-27T05:56:11;14.30;99.90
582;DHT22;277;50.074;8.436;2023-05-27T05:58:39;14.50;99.90
582;DHT22;277;50.074;8.436;2023-05-27T06:01:07;14.60;99.90
582;DHT22;277;50.074;8.436;2023-05-27T06:03:35;14.70;99.90
582;DHT22;277;50.074;8.436;2023-05-27T06:06:04;14.70;99.90
582;DHT22;277;50.074;8.436;2023-05-27T06:08:32;14.80;99.90
582;DHT22;277;50.074;8.436;2023-05-27T06:11:00;14.90;99.90
582;DHT22;277;50.074;8.436;2023-05-27T06:13:29;14.90;99.90
582;DHT22;277;50.074;8.436;2023-05-27T06:15:57;15.00;99.90
582;DHT22;277;50.074;8.436;2023-05-27T06:18:25;15.00;99.90
582;DHT22;277;50.074;8.436;2023-05-27T06:20:53;14.90;99.90
582;DHT22;277;50.074;8.436;2023-05-27T06:23:21;15.00;99.90
582;DHT22;277;50.074;8.436;2023-05-27T06:25:49;15.00;99.90
582;DHT22;277;50.074;8.436;2023-05-27T06:28:17;15.00;99.90
582;DHT22;277;50.074;8.436;2023-05-27T06:30:46;15.10;99.90
582;DHT22;277;50.074;8.436;2023-05-27T06:33:14;15.10;99.90
582;DHT22;277;50.074;8.436;2023-05-27T06:35:42;15.10;99.90
582;DHT22;277;50.074;8.436;2023-05-27T06:38:10;15.20;99.90
582;DHT22;277;50.074;8.436;2023-05-27T06:40:38;15.30;99.90
582;DHT22;277;50.074;8.436;2023-05-27T06:43:06;15.40;99.90
582;DHT22;277;50.074;8.436;2023-05-27T06:45:34;15.40;99.90
582;DHT22;277;50.074;8.436;2023-05-27T06:48:04;15.50;99.90
582;DHT22;277;50.074;8.436;2023-05-27T06:50:32;15.70;99.90
582;DHT22;277;50.074;8.436;2023-05-27T06:53:00;15.70;99.90
582;DHT22;277;50.074;8.436;2023-05-27T06:55:28;15.80;99.90
582;DHT22;277;50.074;8.436;2023-05-27T06:57:56;15.90;99.90
582;DHT22;277;50.074;8.436;2023-05-27T07:00:24;16.00;99.90
582;DHT22;277;50.074;8.436;2023-05-27T07:02:52;15.90;99.90
582;DHT22;277;50.074;8.436;2023-05-27T07:05:22;16.00;99.90
582;DHT22;277;50.074;8.436;2023-05-27T07:07:49;16.10;99.90
582;DHT22;277;50.074;8.436;2023-05-27T07:10:17;16.10;99.90
582;DHT22;277;50.074;8.436;2023-05-27T07:12:45;16.00;99.90
582;DHT22;277;50.074;8.436;2023-05-27T07:15:13;16.10;99.90
582;DHT22;277;50.074;8.436;2023-05-27T07:17:41;16.10;99.90
582;DHT22;277;50.074;8.436;2023-05-27T07:20:10;16.20;99.90
582;DHT22;277;50.074;8.436;2023-05-27T07:22:40;16.30;99.90
582;DHT22;277;50.074;8.436;2023-05-27T07:25:08;16.50;99.90
582;DHT22;277;50.074;8.436;2023-05-27T07:27:37;16.70;99.90
582;DHT22;277;50.074;8.436;2023-05-27T07:30:06;16.70;99.90
582;DHT22;277;50.074;8.436;2023-05-27T07:32:34;16.70;99.90
582;DHT22;277;50.074;8.436;2023-05-27T07:35:03;16.60;99.90
582;DHT22;277;50.074;8.436;2023-05-27T07:37:32;16.60;99.90
582;DHT22;277;50.074;8.436;2023-05-27T07:40:01;16.70;99.90
582;DHT22;277;50.074;8.436;2023-05-27T07:42:29;16.80;99.90
582;DHT22;277;50.074;8.436;2023-05-27T07:44:59;17.00;99.90
582;DHT22;277;50.074;8.436;2023-05-27T07:47:27;17.20;99.90
582;DHT22;277;50.074;8.436;2023-05-27T07:49:55;17.30;99.90
582;DHT22;277;50.074;8.436;2023-05-27T07:52:23;17.10;99.90
582;DHT22;277;50.074;8.436;2023-05-27T07:54:51;17.30;99.90
582;DHT22;277;50.074;8.436;2023-05-27T07:57:22;17.40;99.90
582;DHT22;277;50.074;8.436;2023-05-27T07:59:50;17.40;99.90
582;DHT22;277;50.074;8.436;2023-05-27T08:02:18;17.50;99.90
582;DHT22;277;50.074;8.436;2023-05-27T08:05:10;17.60;99.90
582;DHT22;277;50.074;8.436;2023-05-27T08:07:38;17.70;99.90
582;DHT22;277;50.074;8.436;2023-05-27T08:10:07;17.70;99.90
582;DHT22;277;50.074;8.436;2023-05-27T08:12:36;17.60;99.90
582;DHT22;277;50.074;8.436;2023-05-27T08:15:06;17.70;99.90
582;DHT22;277;50.074;8.436;2023-05-27T08:17:33;17.80;99.90
582;DHT22;277;50.074;8.436;2023-05-27T08:20:02;17.90;99.90
582;DHT22;277;50.074;8.436;2023-05-27T08:22:32;18.10;99.90
582;DHT22;277;50.074;8.436;2023-05-27T08:25:00;18.10;99.90
582;DHT22;277;50.074;8.436;2023-05-27T08:27:46;18.20;99.90
582;DHT22;277;50.074;8.436;2023-05-27T08:30:14;18.40;99.90
582;DHT22;277;50.074;8.436;2023-05-27T08:32:42;18.60;99.90
582;DHT22;277;50.074;8.436;2023-05-27T08:35:11;18.70;99.90
582;DHT22;277;50.074;8.436;2023-05-27T08:37:39;19.00;99.90
582;DHT22;277;50.074;8.436;2023-05-27T08:40:09;19.00;99.90
582;DHT22;277;50.074;8.436;2023-05-27T08:42:37;19.00;99.90
582;DHT22;277;50.074;8.436;2023-05-27T08:45:08;19.20;99.90
582;DHT22;277;50.074;8.436;2023-05-27T08:47:38;19.30;99.90
582;DHT22;277;50.074;8.436;2023-05-27T08:50:07;19.50;99.90
582;DHT22;277;50.074;8.436;2023-05-27T08:52:39;19.80;99.90
582;DHT22;277;50.074;8.436;2023-05-27T08:55:10;19.70;99.90
582;DHT22;277;50.074;8.436;2023-05-27T08:57:43;19.70;99.90
582;DHT22;277;50.074;8.436;2023-05-27T09:00:14;19.80;99.90
582;DHT22;277;50.074;8.436;2023-05-27T09:02:44;19.70;99.90
582;DHT22;277;50.074;8.436;2023-05-27T09:05:13;19.90;99.90
582;DHT22;277;50.074;8.436;2023-05-27T09:07:42;20.00;99.90
582;DHT22;277;50.074;8.436;2023-05-27T09:10:10;20.30;99.90
582;DHT22;277;50.074;8.436;2023-05-27T09:12:42;20.60;99.70
582;DHT22;277;50.074;8.436;2023-05-27T09:15:11;20.50;99.90
582;DHT22;277;50.074;8.436;2023-05-27T09:17:41;20.50;99.90
582;DHT22;277;50.074;8.436;2023-05-27T09:20:10;20.50;99.90
582;DHT22;277;50.074;8.436;2023-05-27T09:22:39;20.80;99.90
582;DHT22;277;50.074;8.436;2023-05-27T09:25:08;20.90;99.90
582;DHT22;277;50.074;8.436;2023-05-27T09:27:42;21.20;99.50
582;DHT22;277;50.074;8.436;2023-05-27T09:30:11;21.00;99.40
582;DHT22;277;50.074;8.436;2023-05-27T09:32:40;20.90;99.60
582;DHT22;277;50.074;8.436;2023-05-27T09:35:11;21.10;99.90
582;DHT22;277;50.074;8.436;2023-05-27T09:37:39;21.20;99.80
582;DHT22;277;50.074;8.436;2023-05-27T09:40:09;21.40;99.60
582;DHT22;277;50.074;8.436;2023-05-27T09:42:41;21.60;99.90
582;DHT22;277;50.074;8.436;2023-05-27T09:45:12;21.90;99.30
582;DHT22;277;50.074;8.436;2023-05-27T09:47:43;21.80;98.60
582;DHT22;277;50.074;8.436;2023-05-27T09:50:14;21.90;98.90
582;DHT22;277;50.074;8.436;2023-05-27T09:52:44;22.10;98.80
582;DHT22;277;50.074;8.436;2023-05-27T09:55:31;22.40;97.90
582;DHT22;277;50.074;8.436;2023-05-27T09:57:59;22.30;98.10
582;DHT22;277;50.074;8.436;2023-05-27T10:00:28;22.40;98.60
582;DHT22;277;50.074;8.436;2023-05-27T10:03:00;22.40;98.20
582;DHT22;277;50.074;8.436;2023-05-27T10:05:29;22.60;97.70
582;DHT22;277;50.074;8.436;2023-05-27T10:07:57;22.90;97.90
582;DHT22;277;50.074;8.436;2023-05-27T10:10:44;22.80;98.10
582;DHT22;277;50.074;8.436;2023-05-27T10:13:14;22.90;97.70
582;DHT22;277;50.074;8.436;2023-05-27T10:15:46;22.90;97.30
582;DHT22;277;50.074;8.436;2023-05-27T10:18:23;22.90;97.20
582;DHT22;277;50.074;8.436;2023-05-27T10:20:52;23.00;97.20
582;DHT22;277;50.074;8.436;2023-05-27T10:23:24;23.00;97.50
582;DHT22;277;50.074;8.436;2023-05-27T10:25:54;23.00;97.70
582;DHT22;277;50.074;8.436;2023-05-27T10:28:24;23.10;96.70
582;DHT22;277;50.074;8.436;2023-05-27T10:30:53;23.30;96.60
582;DHT22;277;50.074;8.436;2023-05-27T10:33:34;23.60;96.60
582;DHT22;277;50.074;8.436;2023-05-27T10:36:09;23.80;97.30
582;DHT22;277;50.074;8.436;2023-05-27T10:38:38;23.80;95.50
582;DHT22;277;50.074;8.436;2023-05-27T10:41:07;23.70;95.30
582;DHT22;277;50.074;8.436;2023-05-27T10:43:36;23.80;95.60
582;DHT22;277;50.074;8.436;2023-05-27T10:46:06;23.80;96.60
582;DHT22;277;50.074;8.436;2023-05-27T10:48:36;23.90;96.50
582;DHT22;277;50.074;8.436;2023-05-27T10:51:06;23.90;96.60
582;DHT22;277;50.074;8.436;2023-05-27T10:53:35;24.00;95.40
582;DHT22;277;50.074;8.436;2023-05-27T10:56:04;24.40;95.00
582;DHT22;277;50.074;8.436;2023-05-27T10:58:34;24.80;95.80
582;DHT22;277;50.074;8.436;2023-05-27T11:01:08;24.80;94.30
582;DHT22;277;50.074;8.436;2023-05-27T11:03:43;24.70;94.40
582;DHT22;277;50.074;8.436;2023-05-27T11:06:13;24.40;94.20
582;DHT22;277;50.074;8.436;2023-05-27T11:08:42;24.10;93.90
582;DHT22;277;50.074;8.436;2023-05-27T11:11:11;23.70;94.90
582;DHT22;277;50.074;8.436;2023-05-27T11:13:41;23.90;94.40
582;DHT22;277;50.074;8.436;2023-05-27T11:16:14;24.00;94.70
582;DHT22;277;50.074;8.436;2023-05-27T11:18:45;24.30;93.60
582;DHT22;277;50.074;8.436;2023-05-27T11:21:15;24.10;92.80
582;DHT22;277;50.074;8.436;2023-05-27T11:23:44;24.40;93.50
582;DHT22;277;50.074;8.436;2023-05-27T11:26:14;24.70;93.60
582;DHT22;277;50.074;8.436;2023-05-27T11:28:46;25.10;94.10
582;DHT22;277;50.074;8.436;2023-05-27T11:31:14;25.10;93.10
582;DHT22;277;50.074;8.436;2023-05-27T11:33:45;24.90;93.40
582;DHT22;277;50.074;8.436;2023-05-27T11:36:15;24.90;92.30
582;DHT22;277;50.074;8.436;2023-05-27T11:38:53;24.50;91.70
582;DHT22;277;50.074;8.436;2023-05-27T11:41:23;25.00;92.00
582;DHT22;277;50.074;8.436;2023-05-27T11:43:54;25.10;91.90
582;DHT22;277;50.074;8.436;2023-05-27T11:46:23;25.40;92.40
582;DHT22;277;50.074;8.436;2023-05-27T11:48:53;25.90;91.60
582;DHT22;277;50.074;8.436;2023-05-27T11:51:26;25.70;91.80
582;DHT22;277;50.074;8.436;2023-05-27T11:53:57;25.70;91.00
582;DHT22;277;50.074;8.436;2023-05-27T11:56:25;25.50;91.80
582;DHT22;277;50.074;8.436;2023-05-27T11:58:55;25.40;91.70
582;DHT22;277;50.074;8.436;2023-05-27T12:01:23;25.50;91.80
582;DHT22;277;50.074;8.436;2023-05-27T12:03:53;25.70;91.40
582;DHT22;277;50.074;8.436;2023-05-27T12:06:21;25.90;90.70
582;DHT22;277;50.074;8.436;2023-05-27T12:08:49;25.80;90.60
582;DHT22;277;50.074;8.436;2023-05-27T12:11:17;25.90;90.30
582;DHT22;277;50.074;8.436;2023-05-27T12:13:45;26.30;90.20
582;DHT22;277;50.074;8.436;2023-05-27T12:16:13;26.50;89.20
582;DHT22;277;50.074;8.436;2023-05-27T12:18:41;26.50;90.00
582;DHT22;277;50.074;8.436;2023-05-27T12:21:10;25.80;90.00
582;DHT22;277;50.074;8.436;2023-05-27T12:23:38;25.90;90.20
582;DHT22;277;50.074;8.436;2023-05-27T12:26:06;26.20;89.90
582;DHT22;277;50.074;8.436;2023-05-27T12:28:34;26.40;89.60
582;DHT22;277;50.074;8.436;2023-05-27T12:31:02;26.40;90.00
582;DHT22;277;50.074;8.436;2023-05-27T12:33:30;26.40;87.40
582;DHT22;277;50.074;8.436;2023-05-27T12:35:59;27.00;89.80
582;DHT22;277;50.074;8.436;2023-05-27T12:38:28;26.70;87.50
582;DHT22;277;50.074;8.436;2023-05-27T12:40:56;27.10;87.60
582;DHT22;277;50.074;8.436;2023-05-27T12:43:25;27.30;85.20
582;DHT22;277;50.074;8.436;2023-05-27T12:45:53;27.20;84.70
582;DHT22;277;50.074;8.436;2023-05-27T12:48:21;27.20;86.80
582;DHT22;277;50.074;8.436;2023-05-27T12:50:49;27.10;85.90
582;DHT22;277;50.074;8.436;2023-05-27T12:53:17;27.10;85.80
582;DHT22;277;50.074;8.436;2023-05-27T12:55:46;27.10;85.80
582;DHT22;277;50.074;8.436;2023-05-27T12:58:15;26.90;83.80
582;DHT22;277;50.074;8.436;2023-05-27T13:00:43;27.10;86.60
582;DHT22;277;50.074;8.436;2023-05-27T13:03:11;27.20;84.30
582;DHT22;277;50.074;8.436;2023-05-27T13:05:40;27.10;83.70
582;DHT22;277;50.074;8.436;2023-05-27T13:08:07;27.30;84.50
582;DHT22;277;50.074;8.436;2023-05-27T13:10:35;27.70;84.20
582;DHT22;277;50.074;8.436;2023-05-27T13:13:05;27.30;83.80
582;DHT22;277;50.074;8.436;2023-05-27T13:15:33;27.40;83.70
582;DHT22;277;50.074;8.436;2023-05-27T13:18:01;27.30;84.00
582;DHT22;277;50.074;8.436;2023-05-27T13:20:31;27.40;83.80
582;DHT22;277;50.074;8.436;2023-05-27T13:22:59;27.50;80.90
582;DHT22;277;50.074;8.436;2023-05-27T13:25:28;27.80;79.30
582;DHT22;277;50.074;8.436;2023-05-27T13:27:57;27.60;77.50
582;DHT22;277;50.074;8.436;2023-05-27T13:30:26;27.50;79.20
582;DHT22;277;50.074;8.436;2023-05-27T13:32:54;27.60;77.70
582;DHT22;277;50.074;8.436;2023-05-27T13:35:22;27.50;78.60
582;DHT22;277;50.074;8.436;2023-05-27T13:37:50;27.40;78.50
582;DHT22;277;50.074;8.436;2023-05-27T13:40:19;27.40;78.00
582;DHT22;277;50.074;8.436;2023-05-27T13:42:47;28.10;79.00
582;DHT22;277;50.074;8.436;2023-05-27T13:45:15;28.20;76.80
582;DHT22;277;50.074;8.436;2023-05-27T13:47:45;28.00;76.00
582;DHT22;277;50.074;8.436;2023-05-27T13:50:13;28.20;76.90
582;DHT22;277;50.074;8.436;2023-05-27T13:52:41;28.20;77.50
582;DHT22;277;50.074;8.436;2023-05-27T13:55:09;28.20;75.70
582;DHT22;277;50.074;8.436;2023-05-27T13:57:37;28.60;76.70
582;DHT22;277;50.074;8.436;2023-05-27T14:00:06;28.40;74.50
582;DHT22;277;50.074;8.436;2023-05-27T14:02:34;28.20;75.50
582;DHT22;277;50.074;8.436;2023-05-27T14:05:04;27.70;75.60
582;DHT22;277;50.074;8.436;2023-05-27T14:07:39;27.80;75.10
582;DHT22;277;50.074;8.436;2023-05-27T14:10:07;27.80;74.50
582;DHT22;277;50.074;8.436;2023-05-27T14:12:35;27.80;75.00
582;DHT22;277;50.074;8.436;2023-05-27T14:15:04;27.90;73.20
582;DHT22;277;50.074;8.436;2023-05-27T14:17:32;27.60;73.80
582;DHT22;277;50.074;8.436;2023-05-27T14:20:00;27.80;74.90
582;DHT22;277;50.074;8.436;2023-05-27T14:22:30;27.90;74.90
582;DHT22;277;50.074;8.436;2023-05-27T14:24:57;28.10;74.70
582;DHT22;277;50.074;8.436;2023-05-27T14:27:25;28.20;74.60
582;DHT22;277;50.074;8.436;2023-05-27T14:29:53;28.20;74.70
582;DHT22;277;50.074;8.436;2023-05-27T14:32:23;28.10;73.40
582;DHT22;277;50.074;8.436;2023-05-27T14:34:51;28.00;73.20
582;DHT22;277;50.074;8.436;2023-05-27T14:37:19;28.00;73.20
582;DHT22;277;50.074;8.436;2023-05-27T14:39:52;28.30;73.50
582;DHT22;277;50.074;8.436;2023-05-27T14:42:20;28.10;72.30
582;DHT22;277;50.074;8.436;2023-05-27T14:44:48;28.10;72.30
582;DHT22;277;50.074;8.436;2023-05-27T14:47:16;27.70;71.20
582;DHT22;277;50.074;8.436;2023-05-27T14:49:44;27.60;72.20
582;DHT22;277;50.074;8.436;2023-05-27T14:52:12;27.60;73.10
582;DHT22;277;50.074;8.436;2023-05-27T14:54:40;27.60;71.50
582;DHT22;277;50.074;8.436;2023-05-27T14:57:09;27.60;72.20
582;DHT22;277;50.074;8.436;2023-05-27T14:59:37;27.70;71.10
582;DHT22;277;50.074;8.436;2023-05-27T15:02:05;27.80;73.00
582;DHT22;277;50.074;8.436;2023-05-27T15:04:33;27.60;71.20
582;DHT22;277;50.074;8.436;2023-05-27T15:07:01;27.70;72.80
582;DHT22;277;50.074;8.436;2023-05-27T15:09:29;27.80;71.30
582;DHT22;277;50.074;8.436;2023-05-27T15:11:56;27.60;71.00
582;DHT22;277;50.074;8.436;2023-05-27T15:14:26;27.10;70.80
582;DHT22;277;50.074;8.436;2023-05-27T15:16:54;27.00;72.10
582;DHT22;277;50.074;8.436;2023-05-27T15:19:22;27.10;71.30
582;DHT22;277;50.074;8.436;2023-05-27T15:21:50;27.10;71.40
582;DHT22;277;50.074;8.436;2023-05-27T15:24:17;27.10;70.80
582;DHT22;277;50.074;8.436;2023-05-27T15:26:45;27.00;72.40
582;DHT22;277;50.074;8.436;2023-05-27T15:29:13;27.00;71.90
582;DHT22;277;50.074;8.436;2023-05-27T15:31:43;26.90;72.30
582;DHT22;277;50.074;8.436;2023-05-27T15:34:11;26.90;71.90
582;DHT22;277;50.074;8.436;2023-05-27T15:36:39;26.70;72.00
582;DHT22;277;50.074;8.436;2023-05-27T15:39:07;26.60;72.50
582;DHT22;277;50.074;8.436;2023-05-27T15:41:35;26.70;73.30
582;DHT22;277;50.074;8.436;2023-05-27T15:44:03;26.40;72.30
582;DHT22;277;50.074;8.436;2023-05-27T15:46:31;26.20;72.30
582;DHT22;277;50.074;8.436;2023-05-27T15:49:00;26.10;74.10
582;DHT22;277;50.074;8.436;2023-05-27T15:51:28;26.20;73.70
582;DHT22;277;50.074;8.436;2023-05-27T15:53:56;26.10;72.50
582;DHT22;277;50.074;8.436;2023-05-27T15:56:24;26.10;74.00
582;DHT22;277;50.074;8.436;2023-05-27T15:58:52;25.90;73.90
582;DHT22;277;50.074;8.436;2023-05-27T16:01:20;25.60;73.50
582;DHT22;277;50.074;8.436;2023-05-27T16:03:48;25.50;74.30
582;DHT22;277;50.074;8.436;2023-05-27T16:06:17;25.30;74.20
582;DHT22;277;50.074;8.436;2023-05-27T16:08:45;25.10;73.80
582;DHT22;277;50.074;8.436;2023-05-27T16:11:14;25.00;74.50
582;DHT22;277;50.074;8.436;2023-05-27T16:13:41;24.80;74.60
582;DHT22;277;50.074;8.436;2023-05-27T16:16:09;24.70;75.80
582;DHT22;277;50.074;8.436;2023-05-27T16:18:37;24.60;75.00
582;DHT22;277;50.074;8.436;2023-05-27T16:21:05;24.50;74.80
582;DHT22;277;50.074;8.436;2023-05-27T16:23:35;24.40;75.30
582;DHT22;277;50.074;8.436;2023-05-27T16:26:03;24.30;76.20
582;DHT22;277;50.074;8.436;2023-05-27T16:28:31;24.20;74.40
582;DHT22;277;50.074;8.436;2023-05-27T16:30:58;24.10;75.60
582;DHT22;277;50.074;8.436;2023-05-27T16:33:27;24.00;75.80
582;DHT22;277;50.074;8.436;2023-05-27T16:35:56;23.90;75.30
582;DHT22;277;50.074;8.436;2023-05-27T16:38:23;23.90;75.70
582;DHT22;277;50.074;8.436;2023-05-27T16:40:53;23.90;76.60
582;DHT22;277;50.074;8.436;2023-05-27T16:43:21;23.90;75.60
582;DHT22;277;50.074;8.436;2023-05-27T16:45:49;23.80;76.00